sensor_id;sensor_type;location;lat;lon;timestamp;pressure;altitude;pressure_sealevel;temperature;humidity
61010;BME280;46897;55.340;86.082;2023-04-07T01:31:48;99103.16;;;2.86;65.65
61010;BME280;46897;55.340;86.082;2023-04-07T01:34:36;99122.78;;;3.28;64.79
61010;BME280;46897;55.340;86.082;2023-04-07T01:37:06;99117.81;;;3.47;64.08
61010;BME280;46897;55.340;86.082;2023-04-07T01:42:43;99121.78;;;3.85;63.25
61010;BME280;46897;55.340;86.082;2023-04-07T01:45:17;99105.09;;;3.88;62.84
61010;BME280;46897;55.340;86.082;2023-04-07T01:47:50;99111.31;;;4.10;62.57
61010;BME280;46897;55.340;86.082;2023-04-07T01:50:20;99093.78;;;4.12;62.83
61010;BME280;46897;55.340;86.082;2023-04-07T01:53:08;99106.66;;;4.42;62.29
61010;BME280;46897;55.340;86.082;2023-04-07T01:55:38;99104.59;;;4.52;62.20
61010;BME280;46897;55.340;86.082;2023-04-07T01:58:07;99082.69;;;4.53;61.94
61010;BME280;46897;55.340;86.082;2023-04-07T02:00:37;99107.03;;;4.80;61.72
61010;BME280;46897;55.340;86.082;2023-04-07T02:03:11;99115.34;;;4.91;61.71
61010;BME280;46897;55.340;86.082;2023-04-07T02:05:53;99029.84;;;4.42;61.35
61010;BME280;46897;55.340;86.082;2023-04-07T02:08:24;99077.63;;;4.94;61.14
61010;BME280;46897;55.340;86.082;2023-04-07T02:14:05;99097.06;;;5.34;61.00
61010;BME280;46897;55.340;86.082;2023-04-07T02:16:36;99074.69;;;5.25;60.93
61010;BME280;46897;55.340;86.082;2023-04-07T02:19:09;99063.84;;;5.33;60.66
61010;BME280;46897;55.340;86.082;2023-04-07T02:21:39;99065.19;;;5.43;60.60
61010;BME280;46897;55.340;86.082;2023-04-07T02:24:10;99033.34;;;5.30;60.67
61010;BME280;46897;55.340;86.082;2023-04-07T02:26:42;99095.16;;;5.80;60.40
61010;BME280;46897;55.340;86.082;2023-04-07T02:29:11;99071.63;;;5.77;60.20
61010;BME280;46897;55.340;86.082;2023-04-07T02:31:43;99057.34;;;5.84;60.00
61010;BME280;46897;55.340;86.082;2023-04-07T02:37:01;99055.53;;;6.07;59.79
61010;BME280;46897;55.340;86.082;2023-04-07T02:39:38;99090.50;;;6.47;59.96
61010;BME280;46897;55.340;86.082;2023-04-07T02:42:08;98952.69;;;5.75;59.62
61010;BME280;46897;55.340;86.082;2023-04-07T02:44:55;99096.31;;;6.74;59.39
61010;BME280;46897;55.340;86.082;2023-04-07T02:47:43;99089.63;;;6.86;59.46
61010;BME280;46897;55.340;86.082;2023-04-07T02:50:17;99066.94;;;6.83;59.17
61010;BME280;46897;55.340;86.082;2023-04-07T02:52:46;99090.47;;;7.05;58.83
61010;BME280;46897;55.340;86.082;2023-04-07T02:55:15;99090.25;;;7.10;58.99
61010;BME280;46897;55.340;86.082;2023-04-07T02:57:45;99075.16;;;7.14;58.61
61010;BME280;46897;55.340;86.082;2023-04-07T03:00:15;99060.44;;;7.09;58.78
61010;BME280;46897;55.340;86.082;2023-04-07T03:02:45;99040.88;;;7.15;58.87
61010;BME280;46897;55.340;86.082;2023-04-07T03:05:16;99107.53;;;7.52;58.77
61010;BME280;46897;55.340;86.082;2023-04-07T03:07:46;99091.28;;;7.61;58.80
61010;BME280;46897;55.340;86.082;2023-04-07T03:10:32;99080.44;;;7.67;58.54
61010;BME280;46897;55.340;86.082;2023-04-07T03:13:11;99085.06;;;7.80;58.34
61010;BME280;46897;55.340;86.082;2023-04-07T03:15:46;99084.75;;;7.86;58.44
61010;BME280;46897;55.340;86.082;2023-04-07T03:18:33;99082.59;;;7.94;58.02
61010;BME280;46897;55.340;86.082;2023-04-07T03:21:04;99071.88;;;7.97;57.60
61010;BME280;46897;55.340;86.082;2023-04-07T03:23:54;99078.41;;;8.07;58.01
61010;BME280;46897;55.340;86.082;2023-04-07T03:26:29;99091.19;;;8.15;57.64
61010;BME280;46897;55.340;86.082;2023-04-07T03:29:35;99069.69;;;8.23;57.53
61010;BME280;46897;55.340;86.082;2023-04-07T03:32:07;98873.63;;;7.09;57.35
61010;BME280;46897;55.340;86.082;2023-04-07T03:34:46;99060.22;;;8.19;57.34
61010;BME280;46897;55.340;86.082;2023-04-07T03:37:18;98852.97;;;7.19;57.33
61010;BME280;46897;55.340;86.082;2023-04-07T03:42:42;99064.59;;;8.69;56.85
61010;BME280;46897;55.340;86.082;2023-04-07T03:45:11;99065.06;;;8.77;57.01
61010;BME280;46897;55.340;86.082;2023-04-07T03:51:08;98905.13;;;8.11;56.81
61010;BME280;46897;55.340;86.082;2023-04-07T03:53:39;99047.84;;;9.02;56.54
61010;BME280;46897;55.340;86.082;2023-04-07T03:56:10;99073.81;;;9.10;56.84
61010;BME280;46897;55.340;86.082;2023-04-07T03:58:43;98958.69;;;8.61;56.42
61010;BME280;46897;55.340;86.082;2023-04-07T04:04:17;98921.94;;;8.58;56.20
61010;BME280;46897;55.340;86.082;2023-04-07T04:10:00;99047.03;;;9.48;55.39
61010;BME280;46897;55.340;86.082;2023-04-07T04:12:29;99010.03;;;9.17;55.64
61010;BME280;46897;55.340;86.082;2023-04-07T04:14:59;98995.53;;;9.24;55.65
61010;BME280;46897;55.340;86.082;2023-04-07T04:17:29;99029.03;;;9.54;55.61
61010;BME280;46897;55.340;86.082;2023-04-07T04:19:58;99045.97;;;9.66;55.32
61010;BME280;46897;55.340;86.082;2023-04-07T04:22:28;98931.41;;;8.92;55.36
61010;BME280;46897;55.340;86.082;2023-04-07T04:24:59;99051.63;;;9.74;54.98
61010;BME280;46897;55.340;86.082;2023-04-07T04:27:29;98947.97;;;9.10;55.09
61010;BME280;46897;55.340;86.082;2023-04-07T04:29:58;98983.69;;;9.32;54.66
61010;BME280;46897;55.340;86.082;2023-04-07T04:32:27;99021.13;;;9.69;54.94
61010;BME280;46897;55.340;86.082;2023-04-07T04:35:01;99056.94;;;9.89;54.90
61010;BME280;46897;55.340;86.082;2023-04-07T04:37:31;99042.88;;;9.88;54.67
61010;BME280;46897;55.340;86.082;2023-04-07T04:40:04;99050.25;;;9.97;54.34
61010;BME280;46897;55.340;86.082;2023-04-07T04:42:35;99033.91;;;9.91;54.28
61010;BME280;46897;55.340;86.082;2023-04-07T04:45:05;98897.25;;;9.05;54.52
61010;BME280;46897;55.340;86.082;2023-04-07T04:50:22;99043.84;;;10.16;54.29
61010;BME280;46897;55.340;86.082;2023-04-07T04:52:51;98897.91;;;9.39;54.29
61010;BME280;46897;55.340;86.082;2023-04-07T04:55:22;98995.22;;;10.04;54.06
61010;BME280;46897;55.340;86.082;2023-04-07T05:03:28;98888.00;;;9.71;53.76
61010;BME280;46897;55.340;86.082;2023-04-07T05:05:59;99024.72;;;10.41;53.84
61010;BME280;46897;55.340;86.082;2023-04-07T05:08:29;98887.91;;;9.73;53.69
61010;BME280;46897;55.340;86.082;2023-04-07T05:11:00;98931.31;;;9.97;53.54
61010;BME280;46897;55.340;86.082;2023-04-07T05:13:29;99014.97;;;10.56;53.67
61010;BME280;46897;55.340;86.082;2023-04-07T05:15:59;99010.66;;;10.55;53.59
61010;BME280;46897;55.340;86.082;2023-04-07T05:18:29;98993.09;;;10.39;53.23
61010;BME280;46897;55.340;86.082;2023-04-07T05:20:58;98891.19;;;9.91;53.17
61010;BME280;46897;55.340;86.082;2023-04-07T05:23:28;99015.81;;;10.71;53.05
61010;BME280;46897;55.340;86.082;2023-04-07T05:26:01;98995.31;;;10.60;52.64
61010;BME280;46897;55.340;86.082;2023-04-07T05:28:30;98961.53;;;10.36;52.90
61010;BME280;46897;55.340;86.082;2023-04-07T05:31:00;99017.78;;;10.67;52.76
61010;BME280;46897;55.340;86.082;2023-04-07T05:33:32;98905.81;;;9.96;52.87
61010;BME280;46897;55.340;86.082;2023-04-07T05:36:19;98978.38;;;10.35;53.21
61010;BME280;46897;55.340;86.082;2023-04-07T05:39:07;99017.22;;;10.76;53.23
61010;BME280;46897;55.340;86.082;2023-04-07T05:41:37;98951.69;;;10.24;52.99
61010;BME280;46897;55.340;86.082;2023-04-07T05:44:07;99007.06;;;10.83;53.03
61010;BME280;46897;55.340;86.082;2023-04-07T05:46:36;98998.84;;;10.88;53.03
61010;BME280;46897;55.340;86.082;2023-04-07T05:49:06;99019.78;;;11.05;52.78
61010;BME280;46897;55.340;86.082;2023-04-07T05:51:46;99020.13;;;11.13;52.96
61010;BME280;46897;55.340;86.082;2023-04-07T05:54:15;99033.53;;;11.25;52.96
61010;BME280;46897;55.340;86.082;2023-04-07T05:56:46;98989.59;;;11.08;52.46
61010;BME280;46897;55.340;86.082;2023-04-07T05:59:15;98967.22;;;10.99;52.55
61010;BME280;46897;55.340;86.082;2023-04-07T06:01:45;99010.28;;;11.15;52.83
61010;BME280;46897;55.340;86.082;2023-04-07T06:04:31;98974.03;;;11.03;52.55
61010;BME280;46897;55.340;86.082;2023-04-07T06:07:18;99027.75;;;11.45;52.57
61010;BME280;46897;55.340;86.082;2023-04-07T06:09:47;98970.47;;;11.17;52.14
61010;BME280;46897;55.340;86.082;2023-04-07T06:15:38;99022.84;;;11.26;52.05
61010;BME280;46897;55.340;86.082;2023-04-07T06:20:55;99018.41;;;11.12;51.91
61010;BME280;46897;55.340;86.082;2023-04-07T06:26:28;98910.72;;;10.17;51.81
61010;BME280;46897;55.340;86.082;2023-04-07T06:29:15;98916.94;;;10.16;51.91
61010;BME280;46897;55.340;86.082;2023-04-07T06:31:46;98896.97;;;9.97;51.86
61010;BME280;46897;55.340;86.082;2023-04-07T06:34:15;98991.72;;;10.61;52.12
61010;BME280;46897;55.340;86.082;2023-04-07T06:36:48;98972.47;;;10.59;52.06
61010;BME280;46897;55.340;86.082;2023-04-07T06:39:38;99018.22;;;10.88;52.08
61010;BME280;46897;55.340;86.082;2023-04-07T06:42:08;99013.81;;;10.74;52.42
61010;BME280;46897;55.340;86.082;2023-04-07T06:44:37;98960.78;;;10.34;52.61
61010;BME280;46897;55.340;86.082;2023-04-07T06:47:27;99000.63;;;10.46;52.86
61010;BME280;46897;55.340;86.082;2023-04-07T06:49:57;99023.09;;;10.67;53.02
61010;BME280;46897;55.340;86.082;2023-04-07T06:52:28;99032.75;;;10.54;53.29
61010;BME280;46897;55.340;86.082;2023-04-07T06:54:58;99051.47;;;10.36;54.05
61010;BME280;46897;55.340;86.082;2023-04-07T06:57:44;98865.88;;;8.84;54.21
61010;BME280;46897;55.340;86.082;2023-04-07T07:00:14;98975.00;;;9.30;54.59
61010;BME280;46897;55.340;86.082;2023-04-07T07:02:45;98998.38;;;9.21;55.46
61010;BME280;46897;55.340;86.082;2023-04-07T07:05:17;99063.91;;;9.45;55.48
61010;BME280;46897;55.340;86.082;2023-04-07T07:07:48;99058.13;;;9.22;55.66
61010;BME280;46897;55.340;86.082;2023-04-07T07:13:11;99092.38;;;8.92;56.91
61010;BME280;46897;55.340;86.082;2023-04-07T07:15:41;98894.50;;;7.47;57.18
61010;BME280;46897;55.340;86.082;2023-04-07T07:18:33;99080.22;;;8.40;57.30
61010;BME280;46897;55.340;86.082;2023-04-07T07:21:15;99088.94;;;8.25;57.65
61010;BME280;46897;55.340;86.082;2023-04-07T07:24:22;99083.56;;;8.09;58.18
61010;BME280;46897;55.340;86.082;2023-04-07T07:26:56;99079.78;;;7.97;58.05
61010;BME280;46897;55.340;86.082;2023-04-07T07:29:25;99103.69;;;7.94;57.98
61010;BME280;46897;55.340;86.082;2023-04-07T07:32:19;99105.84;;;7.86;57.91
61010;BME280;46897;55.340;86.082;2023-04-07T07:34:54;99023.88;;;7.22;57.94
61010;BME280;46897;55.340;86.082;2023-04-07T07:37:24;99050.06;;;7.43;58.29
61010;BME280;46897;55.340;86.082;2023-04-07T07:40:00;99093.44;;;7.71;58.32
61010;BME280;46897;55.340;86.082;2023-04-07T07:42:29;99019.16;;;7.29;57.70
61010;BME280;46897;55.340;86.082;2023-04-07T07:44:59;99084.28;;;7.60;57.98
61010;BME280;46897;55.340;86.082;2023-04-07T07:47:45;99016.44;;;7.13;57.96
61010;BME280;46897;55.340;86.082;2023-04-07T07:50:16;99033.59;;;7.20;57.73
61010;BME280;46897;55.340;86.082;2023-04-07T07:58:45;99022.94;;;6.87;57.76
61010;BME280;46897;55.340;86.082;2023-04-07T08:01:14;99134.63;;;7.54;58.09
61010;BME280;46897;55.340;86.082;2023-04-07T08:03:46;99083.13;;;7.12;58.17
61010;BME280;46897;55.340;86.082;2023-04-07T08:06:21;99048.38;;;7.05;57.80
61010;BME280;46897;55.340;86.082;2023-04-07T08:11:38;99095.41;;;7.31;58.12
61010;BME280;46897;55.340;86.082;2023-04-07T08:14:08;99136.50;;;7.52;58.30
61010;BME280;46897;55.340;86.082;2023-04-07T08:16:37;99095.38;;;7.13;57.98
61010;BME280;46897;55.340;86.082;2023-04-07T08:21:56;99005.53;;;6.08;58.33
61010;BME280;46897;55.340;86.082;2023-04-07T08:24:33;98912.84;;;5.86;58.32
61010;BME280;46897;55.340;86.082;2023-04-07T08:27:10;99169.66;;;7.37;58.09
61010;BME280;46897;55.340;86.082;2023-04-07T08:29:39;99021.63;;;6.40;58.07
61010;BME280;46897;55.340;86.082;2023-04-07T08:32:09;99184.03;;;7.30;58.13
61010;BME280;46897;55.340;86.082;2023-04-07T08:34:38;99099.81;;;6.94;58.09
61010;BME280;46897;55.340;86.082;2023-04-07T08:37:14;99119.72;;;7.36;58.04
61010;BME280;46897;55.340;86.082;2023-04-07T08:39:43;99083.81;;;7.35;57.48
61010;BME280;46897;55.340;86.082;2023-04-07T08:42:31;99223.81;;;8.16;57.22
61010;BME280;46897;55.340;86.082;2023-04-07T08:45:05;99125.75;;;8.09;56.16
61010;BME280;46897;55.340;86.082;2023-04-07T08:47:35;99167.63;;;8.33;55.79
61010;BME280;46897;55.340;86.082;2023-04-07T08:50:12;99118.84;;;8.24;56.08
61010;BME280;46897;55.340;86.082;2023-04-07T08:52:50;99204.28;;;8.72;55.76
61010;BME280;46897;55.340;86.082;2023-04-07T08:55:39;99202.66;;;8.35;55.38
61010;BME280;46897;55.340;86.082;2023-04-07T08:58:09;98942.75;;;6.40;55.38
